Time;durP1;ratioP1;P1;durP2;ratioP2;P2;SDS_P1;SDS_P2;PMS_P1;PMS_P2;Temp;Humidity;BMP_temperature;BMP_pressure;BME280_temperature;BME280_humidity;BME280_pressure;Samples;Min_cycle;Max_cycle;Signal;HPM_P1;HPM_P2
2021/11/22 00:00:41;;;;;;;;;;;10.90;55.90;;;;;;5074691;28;19909;-72
2021/11/22 00:03:06;;;;;;;;;;;10.90;55.90;;;;;;5074586;28;19908;-72
2021/11/22 00:05:32;;;;;;;;;;;10.90;55.90;;;;;;5074553;28;19920;-73
2021/11/22 00:07:58;;;;;;;;;;;10.90;55.90;;;;;;5074486;28;19909;-72
2021/11/22 00:10:24;;;;;;;;;;;10.90;55.80;;;;;;5074482;28;19921;-73
2021/11/22 00:12:49;;;;;;;;;;;10.80;55.80;;;;;;5074350;28;19909;-72
2021/11/22 00:15:16;;;;;;;;;;;10.80;55.80;;;;;;5074163;28;19982;-73
2021/11/22 00:17:42;;;;;;;;;;;10.80;55.80;;;;;;5074282;28;19912;-73
2021/11/22 00:20:09;;;;;;;;;;;10.80;55.80;;;;;;5072778;28;19935;-72
2021/11/22 00:22:35;;;;;;;;;;;10.80;55.80;;;;;;5074255;28;20277;-72
2021/11/22 00:25:01;;;;;;;;;;;10.80;55.80;;;;;;5074244;28;19919;-73
2021/11/22 00:27:27;;;;;;;;;;;10.80;55.80;;;;;;5074167;28;20129;-73
2021/11/22 00:29:52;;;;;;;;;;;10.80;55.90;;;;;;5074121;28;19951;-74
2021/11/22 00:32:18;;;;;;;;;;;10.80;55.90;;;;;;5073894;28;20007;-72
2021/11/22 00:34:44;;;;;;;;;;;10.80;55.90;;;;;;5074753;28;20021;-72
2021/11/22 00:37:19;;;;;;;;;;;10.80;55.90;;;;;;5073879;28;19908;-72
2021/11/22 00:39:45;;;;;;;;;;;10.80;56.00;;;;;;5072680;28;19932;-72
2021/11/22 00:42:11;;;;;;;;;;;10.70;55.90;;;;;;5073862;28;19908;-72
2021/11/22 00:44:37;;;;;;;;;;;10.80;56.00;;;;;;5073642;28;19916;-72
2021/11/22 00:47:03;;;;;;;;;;;10.80;56.00;;;;;;5073778;28;19909;-72
2021/11/22 00:49:29;;;;;;;;;;;10.80;56.00;;;;;;5073536;28;19908;-73
2021/11/22 00:51:54;;;;;;;;;;;10.70;55.90;;;;;;5053679;28;20338;-72
2021/11/22 00:54:20;;;;;;;;;;;10.70;55.90;;;;;;5068397;28;19912;-72
2021/11/22 00:56:45;;;;;;;;;;;10.70;55.90;;;;;;5073551;28;20602;-72
2021/11/22 00:59:11;;;;;;;;;;;10.70;56.00;;;;;;5073448;28;19914;-71
2021/11/22 01:01:37;;;;;;;;;;;10.70;56.00;;;;;;5073522;28;20366;-72
2021/11/22 01:04:04;;;;;;;;;;;10.70;56.00;;;;;;5073709;28;19958;-72
2021/11/22 01:06:29;;;;;;;;;;;10.70;56.10;;;;;;5073334;28;19908;-72
2021/11/22 01:08:55;;;;;;;;;;;10.70;56.10;;;;;;5073388;28;19909;-72
2021/11/22 01:11:20;;;;;;;;;;;10.70;56.10;;;;;;5072105;28;20368;-72
2021/11/22 01:13:46;;;;;;;;;;;10.70;56.10;;;;;;5073287;28;19908;-72
2021/11/22 01:16:12;;;;;;;;;;;10.70;56.10;;;;;;5073018;28;19973;-72
2021/11/22 01:18:37;;;;;;;;;;;10.70;56.20;;;;;;5073065;28;19909;-72
2021/11/22 01:21:03;;;;;;;;;;;10.70;56.20;;;;;;5066019;28;19920;-72
2021/11/22 01:23:29;;;;;;;;;;;10.70;56.20;;;;;;5053127;28;20334;-72
2021/11/22 01:25:54;;;;;;;;;;;10.70;56.30;;;;;;5052986;28;19961;-72
2021/11/22 01:28:20;;;;;;;;;;;10.70;56.30;;;;;;5053017;28;19994;-72
2021/11/22 01:30:46;;;;;;;;;;;10.70;56.30;;;;;;5052924;28;20536;-72
2021/11/22 01:33:13;;;;;;;;;;;10.70;56.30;;;;;;5052822;28;20083;-71
2021/11/22 01:35:42;;;;;;;;;;;10.70;56.40;;;;;;5053879;28;19912;-71
2021/11/22 01:38:08;;;;;;;;;;;10.70;56.40;;;;;;5072801;28;20001;-71
2021/11/22 01:40:34;;;;;;;;;;;10.70;56.40;;;;;;5072702;28;19952;-71
2021/11/22 01:43:00;;;;;;;;;;;10.70;56.40;;;;;;5072031;28;20014;-71
2021/11/22 01:45:26;;;;;;;;;;;10.70;56.50;;;;;;5071342;28;19923;-72
2021/11/22 01:47:52;;;;;;;;;;;10.70;56.50;;;;;;5072637;28;20365;-72
2021/11/22 01:50:19;;;;;;;;;;;10.70;56.60;;;;;;5065664;28;19908;-71
2021/11/22 01:52:49;;;;;;;;;;;10.60;56.60;;;;;;5052530;28;19979;-72
2021/11/22 01:55:18;;;;;;;;;;;10.60;56.60;;;;;;5053372;28;19909;-71
2021/11/22 01:57:44;;;;;;;;;;;10.60;57.30;;;;;;5072446;28;19913;-71
2021/11/22 02:00:18;;;;;;;;;;;10.60;56.80;;;;;;5072474;28;20411;-71
2021/11/22 02:02:44;;;;;;;;;;;10.60;56.90;;;;;;5072333;28;19909;-72
2021/11/22 02:05:09;;;;;;;;;;;10.60;56.90;;;;;;5072199;28;19966;-72
2021/11/22 02:07:35;;;;;;;;;;;10.50;57.00;;;;;;5072156;28;20006;-72
2021/11/22 02:10:03;;;;;;;;;;;10.50;57.10;;;;;;5070906;28;19912;-72
2021/11/22 02:12:31;;;;;;;;;;;10.50;57.20;;;;;;5072175;28;19958;-72
2021/11/22 02:14:56;;;;;;;;;;;10.40;57.30;;;;;;5071927;28;19970;-72
2021/11/22 02:17:22;;;;;;;;;;;10.40;57.30;;;;;;5072231;28;19912;-72
2021/11/22 02:19:56;;;;;;;;;;;10.40;57.40;;;;;;5072081;28;19962;-71
2021/11/22 02:22:22;;;;;;;;;;;10.40;57.50;;;;;;5071799;28;20266;-72
2021/11/22 02:24:48;;;;;;;;;;;10.30;57.50;;;;;;5072030;28;19917;-72
2021/11/22 02:27:13;;;;;;;;;;;10.30;57.60;;;;;;5071909;28;19908;-72
2021/11/22 02:29:39;;;;;;;;;;;10.30;57.80;;;;;;5071918;28;20362;-72
2021/11/22 02:32:05;;;;;;;;;;;10.20;57.90;;;;;;5072043;28;19912;-72
2021/11/22 02:34:30;;;;;;;;;;;10.30;58.00;;;;;;5071943;28;19971;-72
2021/11/22 02:36:56;;;;;;;;;;;10.20;58.10;;;;;;5070714;28;19909;-72
2021/11/22 02:39:21;;;;;;;;;;;10.20;58.20;;;;;;5071971;28;19909;-72
2021/11/22 02:41:47;;;;;;;;;;;10.20;58.30;;;;;;5072053;28;19931;-72
2021/11/22 02:44:13;;;;;;;;;;;10.20;58.30;;;;;;5070571;28;20286;-72
2021/11/22 02:46:39;;;;;;;;;;;10.10;58.30;;;;;;5071990;28;19915;-72
2021/11/22 02:49:04;;;;;;;;;;;10.10;58.40;;;;;;5070664;28;19916;-72
2021/11/22 02:51:30;;;;;;;;;;;10.10;58.40;;;;;;5071848;28;19909;-72
2021/11/22 02:54:03;;;;;;;;;;;10.10;58.50;;;;;;5072782;28;19909;-71
2021/11/22 02:56:33;;;;;;;;;;;10.10;58.50;;;;;;5064653;28;19935;-71
2021/11/22 02:58:59;;;;;;;;;;;10.10;58.60;;;;;;5055605;28;19956;-71
2021/11/22 03:01:25;;;;;;;;;;;10.10;58.60;;;;;;5055793;28;19909;-71
2021/11/22 03:03:52;;;;;;;;;;;10.10;58.60;;;;;;5055790;28;19996;-71
2021/11/22 03:06:17;;;;;;;;;;;10.10;58.60;;;;;;5055854;28;19920;-71
2021/11/22 03:08:43;;;;;;;;;;;10.00;58.60;;;;;;5055683;28;19909;-71
2021/11/22 03:11:09;;;;;;;;;;;10.00;58.70;;;;;;5055682;28;19909;-71
2021/11/22 03:13:36;;;;;;;;;;;10.00;58.70;;;;;;5055546;28;20618;-71
2021/11/22 03:16:01;;;;;;;;;;;10.00;58.80;;;;;;5070654;28;19928;-71
2021/11/22 03:18:27;;;;;;;;;;;10.00;58.80;;;;;;5055294;28;20286;-71
2021/11/22 03:20:53;;;;;;;;;;;10.10;58.90;;;;;;5055380;28;19913;-71
2021/11/22 03:23:18;;;;;;;;;;;10.00;58.90;;;;;;5055410;28;19962;-71
2021/11/22 03:25:44;;;;;;;;;;;10.00;58.90;;;;;;5053866;28;20358;-71
2021/11/22 03:28:11;;;;;;;;;;;10.10;58.90;;;;;;5055127;28;19952;-71
2021/11/22 03:30:38;;;;;;;;;;;10.10;59.00;;;;;;5055229;28;20388;-71
2021/11/22 03:33:05;;;;;;;;;;;10.10;59.00;;;;;;5057482;28;19913;-71
2021/11/22 03:35:31;;;;;;;;;;;10.10;59.00;;;;;;5074917;28;19923;-71
2021/11/22 03:37:57;;;;;;;;;;;10.10;59.00;;;;;;5074943;28;19908;-71
2021/11/22 03:40:23;;;;;;;;;;;10.10;59.00;;;;;;5075029;28;19912;-71
2021/11/22 03:45:36;;;;;;;;;;;10.10;58.90;;;;;;5075097;28;19966;-71
2021/11/22 03:48:02;;;;;;;;;;;10.10;59.00;;;;;;5074723;28;19912;-72
2021/11/22 03:50:27;;;;;;;;;;;10.10;59.00;;;;;;5074663;28;20455;-71
2021/11/22 03:52:53;;;;;;;;;;;10.10;59.00;;;;;;5074760;28;19909;-71
2021/11/22 03:55:19;;;;;;;;;;;10.10;58.90;;;;;;5073146;28;19909;-71
2021/11/22 03:57:46;;;;;;;;;;;10.20;59.00;;;;;;5054681;28;20358;-71
2021/11/22 04:00:12;;;;;;;;;;;10.10;59.10;;;;;;5054512;28;19917;-72
2021/11/22 04:02:38;;;;;;;;;;;10.10;59.00;;;;;;5069890;28;19909;-72
2021/11/22 04:05:03;;;;;;;;;;;10.20;59.10;;;;;;5054201;28;20025;-71
2021/11/22 04:07:29;;;;;;;;;;;10.20;59.10;;;;;;5053928;28;19959;-72
2021/11/22 04:09:55;;;;;;;;;;;10.20;59.10;;;;;;5069949;28;19916;-71
2021/11/22 04:12:21;;;;;;;;;;;10.20;59.10;;;;;;5054323;28;20346;-72
2021/11/22 04:14:46;;;;;;;;;;;10.20;59.10;;;;;;5054114;28;19939;-71
2021/11/22 04:17:12;;;;;;;;;;;10.20;59.10;;;;;;5054331;28;19942;-71
2021/11/22 04:19:38;;;;;;;;;;;10.20;59.10;;;;;;5054072;28;19916;-72
2021/11/22 04:22:03;;;;;;;;;;;10.20;59.10;;;;;;5054184;28;19939;-72
2021/11/22 04:24:29;;;;;;;;;;;10.20;59.10;;;;;;5053861;28;19917;-72
2021/11/22 04:26:55;;;;;;;;;;;10.20;59.10;;;;;;5054108;28;19909;-72
2021/11/22 04:29:20;;;;;;;;;;;10.20;59.10;;;;;;5053825;28;20281;-71
2021/11/22 04:31:46;;;;;;;;;;;10.20;59.10;;;;;;5057123;28;20262;-71
2021/11/22 04:34:14;;;;;;;;;;;10.20;59.00;;;;;;5073834;28;19959;-71
2021/11/22 04:36:40;;;;;;;;;;;10.20;59.00;;;;;;5072411;28;19958;-72
2021/11/22 04:39:06;;;;;;;;;;;10.20;59.00;;;;;;5073680;28;19912;-72
2021/11/22 04:41:31;;;;;;;;;;;10.20;59.00;;;;;;5073558;28;19904;-71
2021/11/22 04:43:57;;;;;;;;;;;10.20;59.00;;;;;;5073575;28;19908;-72
2021/11/22 04:46:22;;;;;;;;;;;10.20;59.00;;;;;;5073448;28;19912;-72
2021/11/22 04:48:48;;;;;;;;;;;10.20;59.00;;;;;;5073495;28;20323;-71
2021/11/22 04:51:13;;;;;;;;;;;10.20;58.90;;;;;;5073352;28;19908;-71
2021/11/22 04:53:39;;;;;;;;;;;10.20;58.90;;;;;;5071863;28;19909;-71
2021/11/22 04:56:05;;;;;;;;;;;10.20;58.90;;;;;;5065375;28;19909;-71
2021/11/22 04:58:31;;;;;;;;;;;10.20;58.90;;;;;;5053268;28;19954;-72
2021/11/22 05:00:56;;;;;;;;;;;10.20;58.90;;;;;;5068797;28;19912;-72
2021/11/22 05:03:22;;;;;;;;;;;10.20;58.90;;;;;;5053249;28;19931;-71
2021/11/22 05:05:48;;;;;;;;;;;10.20;58.90;;;;;;5068578;28;19959;-72
2021/11/22 05:08:13;;;;;;;;;;;10.20;58.90;;;;;;5053103;28;19908;-71
2021/11/22 05:10:41;;;;;;;;;;;10.20;58.90;;;;;;5068873;28;19916;-71
2021/11/22 05:13:07;;;;;;;;;;;10.20;58.90;;;;;;5053165;28;19908;-72
2021/11/22 05:15:34;;;;;;;;;;;10.20;59.00;;;;;;5052833;28;19971;-72
2021/11/22 05:17:59;;;;;;;;;;;10.20;59.00;;;;;;5052075;28;20338;-72
2021/11/22 05:20:25;;;;;;;;;;;10.20;59.00;;;;;;5052985;28;19927;-72
2021/11/22 05:22:51;;;;;;;;;;;10.10;59.50;;;;;;5068260;28;20290;-72
2021/11/22 05:25:17;;;;;;;;;;;10.20;58.90;;;;;;5052628;28;20478;-71
2021/11/22 05:27:42;;;;;;;;;;;10.20;59.00;;;;;;5052453;28;19948;-72
2021/11/22 05:30:08;;;;;;;;;;;10.20;58.90;;;;;;5054371;28;19911;-72
2021/11/22 05:32:34;;;;;;;;;;;10.10;58.90;;;;;;5072734;28;20289;-72
2021/11/22 05:35:00;;;;;;;;;;;10.20;58.90;;;;;;5072607;28;19909;-72
2021/11/22 05:37:28;;;;;;;;;;;10.20;58.90;;;;;;5072717;28;19905;-72
2021/11/22 05:39:54;;;;;;;;;;;10.20;58.90;;;;;;5072970;28;20006;-72
2021/11/22 05:42:20;;;;;;;;;;;10.20;58.90;;;;;;5072838;28;20273;-72
2021/11/22 05:44:46;;;;;;;;;;;10.20;58.90;;;;;;5071100;28;19912;-72
2021/11/22 05:47:12;;;;;;;;;;;10.20;58.90;;;;;;5071159;28;19982;-72
2021/11/22 05:49:38;;;;;;;;;;;10.20;58.90;;;;;;5072439;28;19908;-73
2021/11/22 05:52:04;;;;;;;;;;;10.20;58.90;;;;;;5072352;28;19909;-73
2021/11/22 05:54:32;;;;;;;;;;;10.10;58.80;;;;;;5072475;28;19909;-72
2021/11/22 05:56:58;;;;;;;;;;;10.10;58.90;;;;;;5057231;28;19908;-73
2021/11/22 05:59:24;;;;;;;;;;;10.10;58.90;;;;;;5052131;28;20000;-72
2021/11/22 06:01:50;;;;;;;;;;;10.10;59.00;;;;;;5052355;28;20354;-72
2021/11/22 06:04:16;;;;;;;;;;;10.10;58.90;;;;;;5052272;28;19999;-73
2021/11/22 06:06:42;;;;;;;;;;;10.10;59.00;;;;;;5052203;28;19999;-72
2021/11/22 06:09:07;;;;;;;;;;;10.10;59.00;;;;;;5052175;28;19905;-72
2021/11/22 06:11:33;;;;;;;;;;;10.10;59.00;;;;;;5052165;28;19909;-72
2021/11/22 06:13:59;;;;;;;;;;;10.10;59.00;;;;;;5051966;28;19970;-72
2021/11/22 06:16:24;;;;;;;;;;;10.00;59.00;;;;;;5052235;28;19915;-72
2021/11/22 06:18:50;;;;;;;;;;;10.00;59.00;;;;;;5051920;28;19920;-72
2021/11/22 06:21:15;;;;;;;;;;;10.00;59.10;;;;;;5051670;28;19909;-73
2021/11/22 06:23:41;;;;;;;;;;;10.00;59.10;;;;;;5051805;28;19937;-72
2021/11/22 06:26:07;;;;;;;;;;;10.00;59.20;;;;;;5052065;28;20282;-72
2021/11/22 06:28:32;;;;;;;;;;;10.00;59.20;;;;;;5072683;28;19916;-72
2021/11/22 06:30:58;;;;;;;;;;;10.00;59.30;;;;;;5077353;28;19908;-72
2021/11/22 06:33:23;;;;;;;;;;;10.00;59.30;;;;;;5077209;28;19909;-72
2021/11/22 06:35:49;;;;;;;;;;;10.00;59.40;;;;;;5078543;28;19908;-72
2021/11/22 06:38:15;;;;;;;;;;;10.00;59.40;;;;;;5078523;28;19908;-72
2021/11/22 06:40:41;;;;;;;;;;;10.00;59.40;;;;;;5077589;28;19916;-72
2021/11/22 06:43:06;;;;;;;;;;;10.00;59.40;;;;;;5078451;28;19915;-72
2021/11/22 06:45:32;;;;;;;;;;;10.00;59.50;;;;;;5078491;28;20003;-72
2021/11/22 06:47:58;;;;;;;;;;;10.00;59.40;;;;;;5077229;28;19912;-72
2021/11/22 06:50:24;;;;;;;;;;;10.00;59.50;;;;;;5078383;28;19912;-73
2021/11/22 06:52:49;;;;;;;;;;;10.00;59.40;;;;;;5078403;28;19915;-73
2021/11/22 06:55:16;;;;;;;;;;;10.10;59.50;;;;;;5078529;28;19924;-72
2021/11/22 06:57:41;;;;;;;;;;;10.10;59.50;;;;;;5076998;28;19908;-73
2021/11/22 07:00:09;;;;;;;;;;;10.10;59.50;;;;;;5078440;28;19909;-72
2021/11/22 07:02:35;;;;;;;;;;;10.10;59.40;;;;;;5077247;28;20439;-72
2021/11/22 07:05:01;;;;;;;;;;;10.10;59.40;;;;;;5078387;28;20289;-73
2021/11/22 07:07:27;;;;;;;;;;;10.10;59.40;;;;;;5077135;28;19913;-73
2021/11/22 07:09:52;;;;;;;;;;;10.10;59.40;;;;;;5078423;28;19908;-72
2021/11/22 07:12:18;;;;;;;;;;;10.10;59.40;;;;;;5078374;28;20387;-73
2021/11/22 07:14:44;;;;;;;;;;;10.20;59.40;;;;;;5078109;28;19924;-73
2021/11/22 07:17:14;;;;;;;;;;;10.20;59.40;;;;;;5078358;28;20361;-72
2021/11/22 07:19:41;;;;;;;;;;;10.20;59.40;;;;;;5077088;28;19912;-72
2021/11/22 07:22:08;;;;;;;;;;;10.20;59.40;;;;;;5078298;28;19909;-73
2021/11/22 07:24:36;;;;;;;;;;;10.30;59.40;;;;;;5078247;28;19958;-73
2021/11/22 07:27:01;;;;;;;;;;;10.30;59.40;;;;;;5078340;28;19931;-73
2021/11/22 07:29:27;;;;;;;;;;;10.30;59.40;;;;;;5078129;28;19912;-72
2021/11/22 07:31:53;;;;;;;;;;;10.30;59.40;;;;;;5078225;28;19956;-72
2021/11/22 07:34:18;;;;;;;;;;;10.40;59.40;;;;;;5078189;28;20003;-73
2021/11/22 07:36:44;;;;;;;;;;;10.40;59.30;;;;;;5078219;28;19916;-73
2021/11/22 07:39:10;;;;;;;;;;;10.50;59.30;;;;;;5078151;28;19944;-73
2021/11/22 07:41:35;;;;;;;;;;;10.50;59.20;;;;;;5074696;28;20366;-73
2021/11/22 07:44:01;;;;;;;;;;;10.50;59.10;;;;;;5075158;28;19908;-72
2021/11/22 07:46:27;;;;;;;;;;;10.60;59.20;;;;;;5071896;28;19916;-72
2021/11/22 07:48:53;;;;;;;;;;;10.60;59.10;;;;;;5053971;28;20413;-72
2021/11/22 07:51:19;;;;;;;;;;;10.60;59.10;;;;;;5054207;28;19909;-73
2021/11/22 07:53:44;;;;;;;;;;;10.60;59.10;;;;;;5052551;28;19916;-72
2021/11/22 07:56:10;;;;;;;;;;;10.70;59.10;;;;;;5054071;28;19908;-73
2021/11/22 07:58:36;;;;;;;;;;;10.70;59.00;;;;;;5053674;28;20241;-72
2021/11/22 08:01:01;;;;;;;;;;;10.70;58.90;;;;;;5053869;28;19909;-72
2021/11/22 08:03:27;;;;;;;;;;;10.70;58.90;;;;;;5053406;28;19912;-72
2021/11/22 08:05:57;;;;;;;;;;;10.80;58.90;;;;;;5060131;28;19912;-73
2021/11/22 08:08:25;;;;;;;;;;;10.80;58.90;;;;;;5064827;28;20282;-73
2021/11/22 08:11:04;;;;;;;;;;;10.80;58.90;;;;;;5051816;28;20362;-73
2021/11/22 08:13:30;;;;;;;;;;;10.90;58.90;;;;;;5053981;28;19997;-73
2021/11/22 08:15:59;;;;;;;;;;;10.90;58.90;;;;;;5054271;28;20007;-73
2021/11/22 08:18:25;;;;;;;;;;;11.00;58.90;;;;;;5067934;28;20354;-73
2021/11/22 08:20:51;;;;;;;;;;;11.10;58.90;;;;;;5068288;28;19919;-73
2021/11/22 08:23:16;;;;;;;;;;;11.10;58.80;;;;;;5074169;28;19909;-73
2021/11/22 08:25:43;;;;;;;;;;;11.20;58.80;;;;;;5069363;28;19916;-73
2021/11/22 08:28:08;;;;;;;;;;;11.20;58.60;;;;;;5071799;28;19932;-73
2021/11/22 08:30:35;;;;;;;;;;;11.30;58.50;;;;;;5072370;28;19912;-73
2021/11/22 08:33:01;;;;;;;;;;;11.30;58.40;;;;;;5060576;28;19920;-72
2021/11/22 08:35:31;;;;;;;;;;;11.30;58.40;;;;;;5053120;28;19958;-73
2021/11/22 08:37:57;;;;;;;;;;;11.40;58.30;;;;;;5052828;28;20277;-73
2021/11/22 08:40:23;;;;;;;;;;;11.40;58.20;;;;;;5064571;28;19916;-73
2021/11/22 08:42:49;;;;;;;;;;;11.40;58.70;;;;;;5070823;28;19917;-73
2021/11/22 08:45:15;;;;;;;;;;;11.40;58.00;;;;;;5061453;28;20007;-73
2021/11/22 08:53:51;;;;;;;;;;;11.50;57.90;;;;;;5060951;28;20020;-72
2021/11/22 08:56:16;;;;;;;;;;;11.50;58.00;;;;;;5088863;28;19912;-72
2021/11/22 08:58:42;;;;;;;;;;;11.60;58.00;;;;;;5090578;28;19963;-72
2021/11/22 09:01:08;;;;;;;;;;;11.60;57.80;;;;;;5091440;28;19973;-72
2021/11/22 09:03:35;;;;;;;;;;;11.70;57.90;;;;;;5091682;28;19915;-72
2021/11/22 09:06:01;;;;;;;;;;;11.80;57.90;;;;;;5072881;28;20277;-72
2021/11/22 09:08:39;;;;;;;;;;;11.80;57.70;;;;;;5072992;28;20042;-73
2021/11/22 09:11:05;;;;;;;;;;;11.80;57.50;;;;;;5091955;28;19908;-73
2021/11/22 09:13:30;;;;;;;;;;;11.80;57.20;;;;;;5092604;28;19915;-73
2021/11/22 09:16:15;;;;;;;;;;;11.80;57.00;;;;;;5093220;28;20445;-73
2021/11/22 09:18:40;;;;;;;;;;;11.80;56.90;;;;;;5094021;28;20388;-73
2021/11/22 09:21:53;;;;;;;;;;;11.80;56.80;;;;;;5088961;28;19909;-72
2021/11/22 09:24:22;;;;;;;;;;;11.80;56.90;;;;;;5080703;28;20020;-72
2021/11/22 09:26:47;;;;;;;;;;;11.80;56.90;;;;;;5074958;28;19954;-73
2021/11/22 09:29:13;;;;;;;;;;;11.80;56.90;;;;;;5083262;28;19963;-73
2021/11/22 09:31:39;;;;;;;;;;;11.90;56.90;;;;;;5092231;28;19920;-73
2021/11/22 09:34:05;;;;;;;;;;;11.90;56.90;;;;;;5090936;28;19958;-72
2021/11/22 09:36:52;;;;;;;;;;;11.90;56.90;;;;;;5083846;28;19968;-73
2021/11/22 09:42:28;;;;;;;;;;;12.00;57.00;;;;;;5077060;28;19927;-73
2021/11/22 09:44:54;;;;;;;;;;;12.00;56.90;;;;;;5078643;28;19951;-73
2021/11/22 09:47:20;;;;;;;;;;;12.10;57.00;;;;;;5090016;28;19909;-73
2021/11/22 09:49:46;;;;;;;;;;;12.10;57.00;;;;;;5081493;28;19912;-73
2021/11/22 09:52:12;;;;;;;;;;;12.20;57.00;;;;;;5093735;28;19916;-73
2021/11/22 09:54:37;;;;;;;;;;;12.30;57.10;;;;;;5073960;28;19950;-73
2021/11/22 09:57:03;;;;;;;;;;;12.30;57.00;;;;;;5088693;28;19943;-73
2021/11/22 09:59:28;;;;;;;;;;;12.40;57.10;;;;;;5098101;28;19908;-73
2021/11/22 10:01:55;;;;;;;;;;;12.40;57.10;;;;;;5060425;28;19912;-73
2021/11/22 10:04:21;;;;;;;;;;;12.60;57.10;;;;;;5074023;28;19908;-72
2021/11/22 10:06:48;;;;;;;;;;;12.60;57.00;;;;;;5084372;28;20080;-72
2021/11/22 10:09:35;;;;;;;;;;;12.70;56.90;;;;;;5086863;28;20003;-72
2021/11/22 10:12:29;;;;;;;;;;;12.80;56.80;;;;;;5087674;28;20370;-72
2021/11/22 10:14:56;;;;;;;;;;;12.80;56.50;;;;;;5052183;28;19964;-72
2021/11/22 10:17:21;;;;;;;;;;;12.90;56.50;;;;;;5075658;28;20336;-72
2021/11/22 10:19:47;;;;;;;;;;;12.90;56.40;;;;;;5093470;28;20003;-73
2021/11/22 10:22:19;;;;;;;;;;;13.00;56.40;;;;;;5111596;28;19914;-69
2021/11/22 10:24:45;;;;;;;;;;;12.90;56.20;;;;;;5079250;28;19969;-67
2021/11/22 10:27:10;;;;;;;;;;;13.00;56.10;;;;;;5086229;28;19912;-67
2021/11/22 10:29:36;;;;;;;;;;;13.00;56.10;;;;;;5078582;28;19916;-67
2021/11/22 10:32:04;;;;;;;;;;;13.00;56.10;;;;;;5088461;28;20265;-67
2021/11/22 10:34:35;;;;;;;;;;;13.00;56.00;;;;;;5078179;28;19916;-67
2021/11/22 10:37:10;;;;;;;;;;;13.00;56.00;;;;;;5076961;28;20378;-67
2021/11/22 10:39:36;;;;;;;;;;;13.00;55.90;;;;;;5090890;28;19950;-67
2021/11/22 10:42:01;;;;;;;;;;;13.00;55.80;;;;;;5090871;28;19954;-68
2021/11/22 10:44:28;;;;;;;;;;;13.00;55.80;;;;;;5090057;28;20324;-68
2021/11/22 10:46:57;;;;;;;;;;;13.00;55.90;;;;;;5085849;28;19916;-67
2021/11/22 10:49:38;;;;;;;;;;;13.00;56.00;;;;;;5081135;28;19915;-67
2021/11/22 10:52:13;;;;;;;;;;;13.00;56.20;;;;;;5065501;28;20358;-67
2021/11/22 10:54:57;;;;;;;;;;;13.00;56.30;;;;;;5085023;28;20333;-67
2021/11/22 10:57:31;;;;;;;;;;;13.20;56.50;;;;;;5107901;28;20373;-69
2021/11/22 10:59:57;;;;;;;;;;;13.20;56.50;;;;;;5075755;28;19912;-68
2021/11/22 11:02:38;;;;;;;;;;;13.30;56.30;;;;;;5070775;28;19920;-68
2021/11/22 11:05:03;;;;;;;;;;;13.30;56.10;;;;;;5090601;28;19966;-67
2021/11/22 11:07:29;;;;;;;;;;;13.30;55.80;;;;;;5091081;28;19947;-68
2021/11/22 11:09:55;;;;;;;;;;;13.30;55.70;;;;;;5090186;28;19912;-68
2021/11/22 11:12:23;;;;;;;;;;;13.30;55.60;;;;;;5085051;28;19924;-69
2021/11/22 11:14:50;;;;;;;;;;;13.30;55.70;;;;;;5089036;28;19923;-69
2021/11/22 11:17:18;;;;;;;;;;;13.30;55.90;;;;;;5092384;28;19915;-69
2021/11/22 11:19:45;;;;;;;;;;;13.30;55.80;;;;;;5092413;28;19916;-68
2021/11/22 11:22:10;;;;;;;;;;;13.40;56.00;;;;;;5091886;28;20392;-68
2021/11/22 11:24:36;;;;;;;;;;;13.40;55.90;;;;;;5091492;28;19920;-69
2021/11/22 11:27:02;;;;;;;;;;;13.40;56.00;;;;;;5094686;28;19957;-68
2021/11/22 11:29:28;;;;;;;;;;;13.50;55.90;;;;;;5094493;28;19912;-69
2021/11/22 11:31:54;;;;;;;;;;;13.50;55.70;;;;;;5094038;28;20057;-68
2021/11/22 11:34:20;;;;;;;;;;;13.50;55.70;;;;;;5094109;28;19908;-68
2021/11/22 11:37:08;;;;;;;;;;;13.50;55.60;;;;;;5091004;28;19919;-68
2021/11/22 11:39:40;;;;;;;;;;;13.50;55.60;;;;;;5084882;28;19956;-69
2021/11/22 11:42:16;;;;;;;;;;;13.50;55.60;;;;;;5093576;28;19912;-69
2021/11/22 11:44:49;;;;;;;;;;;13.50;55.70;;;;;;5094020;28;19908;-68
2021/11/22 11:47:18;;;;;;;;;;;13.60;56.00;;;;;;5094166;28;19972;-68
2021/11/22 11:49:44;;;;;;;;;;;13.60;55.90;;;;;;5083754;28;19916;-68
2021/11/22 11:52:22;;;;;;;;;;;13.70;55.90;;;;;;5073638;28;19916;-68
2021/11/22 11:54:48;;;;;;;;;;;13.70;55.70;;;;;;5074370;28;19912;-68
2021/11/22 11:57:17;;;;;;;;;;;13.70;55.60;;;;;;5056427;28;20301;-68
2021/11/22 11:59:45;;;;;;;;;;;13.70;55.60;;;;;;5086994;28;19912;-68
2021/11/22 12:02:12;;;;;;;;;;;13.70;55.30;;;;;;5087994;28;19912;-68
2021/11/22 12:04:50;;;;;;;;;;;13.70;55.30;;;;;;5092106;28;20012;-68
2021/11/22 12:07:28;;;;;;;;;;;13.70;55.20;;;;;;5092854;28;19995;-68
2021/11/22 12:10:01;;;;;;;;;;;13.70;55.20;;;;;;5094253;28;20135;-69
2021/11/22 12:12:33;;;;;;;;;;;13.60;55.10;;;;;;5086703;28;20469;-69
2021/11/22 12:15:00;;;;;;;;;;;13.60;55.30;;;;;;5093417;28;19928;-68
2021/11/22 12:17:34;;;;;;;;;;;13.60;55.40;;;;;;5083523;28;21434;-69
2021/11/22 12:20:07;;;;;;;;;;;13.60;55.40;;;;;;5093562;28;20303;-68
2021/11/22 12:22:36;;;;;;;;;;;13.50;55.40;;;;;;5093221;28;20443;-68
2021/11/22 12:25:02;;;;;;;;;;;13.60;55.50;;;;;;5090188;28;19916;-69
2021/11/22 12:27:28;;;;;;;;;;;13.60;55.70;;;;;;5092624;28;19912;-69
2021/11/22 12:30:00;;;;;;;;;;;13.60;55.70;;;;;;5078504;28;19912;-69
2021/11/22 12:32:34;;;;;;;;;;;13.60;55.60;;;;;;5092991;28;19931;-69
2021/11/22 12:35:06;;;;;;;;;;;13.70;55.60;;;;;;5093308;28;19934;-69
2021/11/22 12:37:34;;;;;;;;;;;13.70;55.50;;;;;;5088689;28;20319;-69
2021/11/22 12:40:27;;;;;;;;;;;13.70;55.30;;;;;;5092979;28;20412;-69
2021/11/22 12:42:57;;;;;;;;;;;13.70;55.20;;;;;;5090787;28;20369;-69
2021/11/22 12:45:23;;;;;;;;;;;13.70;55.30;;;;;;5068747;28;19944;-69
2021/11/22 12:47:48;;;;;;;;;;;13.70;55.30;;;;;;5072764;28;20597;-69
2021/11/22 12:50:18;;;;;;;;;;;13.70;55.30;;;;;;5073201;28;20392;-69
2021/11/22 12:53:02;;;;;;;;;;;13.70;55.30;;;;;;5072344;28;20008;-69
2021/11/22 12:55:33;;;;;;;;;;;13.70;55.30;;;;;;5087735;28;20380;-69
2021/11/22 12:58:07;;;;;;;;;;;13.70;55.30;;;;;;5085716;28;19909;-69
2021/11/22 13:00:36;;;;;;;;;;;13.70;55.30;;;;;;5079036;28;19961;-69
2021/11/22 13:03:09;;;;;;;;;;;13.70;55.20;;;;;;5078396;28;19920;-69
2021/11/22 13:05:49;;;;;;;;;;;13.60;55.10;;;;;;5075118;28;20004;-69
2021/11/22 13:08:17;;;;;;;;;;;13.60;55.10;;;;;;5092342;28;19908;-69
2021/11/22 13:10:51;;;;;;;;;;;13.50;55.00;;;;;;5087789;28;19915;-69
2021/11/22 13:16:03;;;;;;;;;;;13.40;55.20;;;;;;5092139;28;20011;-69
2021/11/22 13:18:33;;;;;;;;;;;13.30;55.40;;;;;;5075939;28;20258;-69
2021/11/22 13:21:06;;;;;;;;;;;13.20;55.40;;;;;;5112608;28;19961;-69
2021/11/22 13:23:35;;;;;;;;;;;13.10;55.50;;;;;;5096340;28;20015;-68
2021/11/22 13:26:02;;;;;;;;;;;13.00;55.50;;;;;;5091830;28;19958;-68
2021/11/22 13:28:32;;;;;;;;;;;13.00;56.40;;;;;;5092339;28;20015;-67
2021/11/22 13:31:04;;;;;;;;;;;12.90;55.80;;;;;;5092099;28;19908;-68
2021/11/22 13:33:29;;;;;;;;;;;12.90;56.00;;;;;;5089519;28;19915;-67
2021/11/22 13:35:56;;;;;;;;;;;12.90;56.20;;;;;;5083805;28;19986;-67
2021/11/22 13:38:22;;;;;;;;;;;12.80;56.30;;;;;;5093309;28;19958;-67
2021/11/22 13:40:51;;;;;;;;;;;12.70;56.60;;;;;;5112387;28;19908;-68
2021/11/22 13:43:19;;;;;;;;;;;12.70;56.70;;;;;;5093374;28;19915;-67
2021/11/22 13:45:53;;;;;;;;;;;12.70;56.70;;;;;;5091763;28;20006;-67
2021/11/22 13:48:19;;;;;;;;;;;12.60;56.70;;;;;;5090311;28;19908;-68
2021/11/22 13:50:46;;;;;;;;;;;12.60;56.70;;;;;;5092037;28;19957;-69
2021/11/22 13:53:13;;;;;;;;;;;12.60;56.90;;;;;;5091522;28;19908;-68
2021/11/22 13:55:40;;;;;;;;;;;12.50;56.90;;;;;;5092378;28;19946;-68
2021/11/22 13:58:12;;;;;;;;;;;12.50;57.60;;;;;;5078759;28;19915;-68
2021/11/22 14:00:37;;;;;;;;;;;12.40;57.10;;;;;;5085246;28;19951;-68
2021/11/22 14:03:03;;;;;;;;;;;12.40;57.20;;;;;;5083634;28;19939;-69
2021/11/22 14:05:29;;;;;;;;;;;12.40;57.30;;;;;;5092328;28;19920;-68
2021/11/22 14:07:58;;;;;;;;;;;12.40;57.40;;;;;;5091381;28;20384;-69
2021/11/22 14:10:42;;;;;;;;;;;12.40;57.40;;;;;;5091114;28;19904;-69
2021/11/22 14:13:09;;;;;;;;;;;12.40;57.50;;;;;;5108832;28;19919;-69
2021/11/22 14:15:36;;;;;;;;;;;12.40;57.50;;;;;;5111759;28;19923;-69
2021/11/22 14:18:03;;;;;;;;;;;12.40;57.60;;;;;;5111745;28;19915;-69
2021/11/22 14:20:29;;;;;;;;;;;12.40;57.70;;;;;;5112154;28;19912;-69
2021/11/22 14:23:04;;;;;;;;;;;12.40;57.80;;;;;;5111826;28;19995;-69
2021/11/22 14:25:31;;;;;;;;;;;12.40;57.80;;;;;;5109814;28;20328;-68
2021/11/22 14:27:58;;;;;;;;;;;12.30;57.80;;;;;;5111395;28;19908;-69
2021/11/22 14:30:31;;;;;;;;;;;12.40;57.90;;;;;;5111577;28;19996;-69
2021/11/22 14:33:03;;;;;;;;;;;12.30;58.00;;;;;;5071016;28;19908;-69